createdAt,value
2023-04-20T00:02:17.613Z,37.96
2023-04-20T00:04:44.076Z,38.24
2023-04-20T00:07:10.509Z,38.02
2023-04-20T00:09:37.094Z,38.24
2023-04-20T00:12:03.454Z,38.25
2023-04-20T00:14:29.855Z,38.36
2023-04-20T00:16:56.273Z,38.75
2023-04-20T00:19:23.258Z,39.09
2023-04-20T00:21:49.972Z,39.14
2023-04-20T00:24:16.346Z,38.58
2023-04-20T00:26:42.724Z,38.70
2023-04-20T00:29:09.139Z,39.26
2023-04-20T00:31:36.812Z,38.80
2023-04-20T00:34:03.201Z,38.63
2023-04-20T00:36:29.896Z,38.97
2023-04-20T00:38:58.231Z,39.14
2023-04-20T00:41:24.791Z,38.90
2023-04-20T00:43:52.368Z,40.70
2023-04-20T00:46:18.821Z,40.46
2023-04-20T00:48:45.232Z,39.49
2023-04-20T00:51:11.610Z,38.38
2023-04-20T00:53:37.987Z,38.88
2023-04-20T00:56:04.728Z,38.76
2023-04-20T00:58:32.501Z,38.46
2023-04-20T01:00:58.989Z,38.71
2023-04-20T01:03:25.588Z,38.11
2023-04-20T01:05:52.030Z,38.37
2023-04-20T01:08:20.990Z,37.78
2023-04-20T01:10:47.349Z,38.23
2023-04-20T01:13:13.769Z,38.33
2023-04-20T01:15:40.251Z,38.37
2023-04-20T01:18:09.522Z,38.62
2023-04-20T01:20:37.747Z,38.28
2023-04-20T01:23:04.134Z,38.22
2023-04-20T01:25:30.560Z,40.50
2023-04-20T01:27:56.934Z,39.28
2023-04-20T01:30:23.358Z,39.20
2023-04-20T01:32:49.916Z,38.76
2023-04-20T01:35:16.321Z,39.03
2023-04-20T01:37:44.431Z,38.68
2023-04-20T01:40:10.988Z,39.87
2023-04-20T01:42:37.503Z,39.91
2023-04-20T01:45:03.873Z,40.17
2023-04-20T01:47:30.304Z,40.62
2023-04-20T01:49:56.703Z,40.61
2023-04-20T01:52:25.007Z,40.76
2023-04-20T01:54:51.531Z,40.04
2023-04-20T01:57:17.931Z,42.09
2023-04-20T01:59:44.321Z,43.25
2023-04-20T02:02:10.796Z,41.54
2023-04-20T02:04:37.597Z,40.81
2023-04-20T02:07:03.920Z,41.29
2023-04-20T02:09:30.528Z,40.79
2023-04-20T02:11:56.942Z,41.24
2023-04-20T02:14:23.265Z,41.48
2023-04-20T02:16:49.738Z,42.02
2023-04-20T02:19:16.759Z,42.06
2023-04-20T02:21:43.368Z,42.13
2023-04-20T02:24:09.906Z,41.85
2023-04-20T02:26:36.322Z,43.69
2023-04-20T02:29:02.826Z,42.27
2023-04-20T02:31:29.255Z,41.88
2023-04-20T02:33:55.621Z,41.38
2023-04-20T02:36:21.968Z,41.28
2023-04-20T02:38:48.538Z,42.14
2023-04-20T02:41:14.877Z,42.32
2023-04-20T02:43:41.306Z,42.34
2023-04-20T02:46:09.506Z,42.79
2023-04-20T02:48:36.323Z,41.71
2023-04-20T02:51:02.793Z,42.71
2023-04-20T02:53:34.349Z,42.42
2023-04-20T02:56:11.777Z,42.50
2023-04-20T02:58:51.963Z,42.95
2023-04-20T03:01:26.454Z,43.04
2023-04-20T03:04:01.168Z,42.57
2023-04-20T03:06:28.619Z,42.80
2023-04-20T03:08:56.823Z,43.27
2023-04-20T03:11:46.349Z,43.19
2023-04-20T03:14:21.856Z,43.18
2023-04-20T03:16:48.582Z,43.10
2023-04-20T03:19:15.098Z,43.43
2023-04-20T03:21:43.002Z,43.45
2023-04-20T03:24:09.485Z,42.96
2023-04-20T03:26:36.873Z,43.45
2023-04-20T03:29:26.936Z,43.74
2023-04-20T03:31:53.478Z,44.17
2023-04-20T03:34:20.142Z,44.02
2023-04-20T03:36:46.858Z,44.52
2023-04-20T03:39:13.280Z,44.33
2023-04-20T03:41:39.658Z,45.04
2023-04-20T03:44:07.353Z,45.17
2023-04-20T03:46:33.949Z,45.25
2023-04-20T03:49:00.421Z,45.34
2023-04-20T03:51:26.880Z,45.13
2023-04-20T03:53:53.280Z,44.54
2023-04-20T03:56:19.702Z,45.81
2023-04-20T03:58:47.557Z,46.22
2023-04-20T04:01:18.431Z,46.73
2023-04-20T04:03:48.022Z,47.15
2023-04-20T04:06:14.602Z,47.05
2023-04-20T04:08:41.389Z,46.96
2023-04-20T04:11:07.761Z,47.89
2023-04-20T04:13:34.702Z,48.14
2023-04-20T04:16:03.158Z,49.22
2023-04-20T04:18:32.392Z,48.09
2023-04-20T04:21:01.478Z,49.00
2023-04-20T04:23:28.032Z,48.00
2023-04-20T04:26:13.308Z,48.67
2023-04-20T04:28:45.773Z,48.22
2023-04-20T04:31:19.434Z,48.40
2023-04-20T04:33:46.542Z,48.47
2023-04-20T04:36:21.575Z,48.78
2023-04-20T04:38:48.053Z,48.66
2023-04-20T04:41:14.435Z,49.06
2023-04-20T04:43:42.381Z,49.00
2023-04-20T04:46:18.767Z,49.20
2023-04-20T04:48:46.676Z,49.45
2023-04-20T04:51:13.138Z,48.63
2023-04-20T04:53:39.571Z,49.33
2023-04-20T04:56:06.844Z,49.60
2023-04-20T04:58:33.313Z,49.95
2023-04-20T05:00:59.665Z,49.83
2023-04-20T05:03:26.280Z,50.41
2023-04-20T05:05:52.837Z,50.62
2023-04-20T05:08:19.215Z,50.58
2023-04-20T05:10:45.585Z,50.69
2023-04-20T05:13:11.990Z,50.90
2023-04-20T05:15:38.364Z,52.07
2023-04-20T05:18:04.789Z,52.26
2023-04-20T05:20:31.275Z,52.24
2023-04-20T05:22:57.704Z,52.32
2023-04-20T05:25:24.037Z,53.41
2023-04-20T05:27:50.567Z,54.75
2023-04-20T05:30:20.709Z,55.50
2023-04-20T05:32:51.081Z,55.72
2023-04-20T05:35:18.496Z,56.48
2023-04-20T05:37:44.883Z,57.45
2023-04-20T05:40:11.716Z,56.69
2023-04-20T05:42:38.143Z,56.21
2023-04-20T05:45:04.943Z,55.60
2023-04-20T05:47:31.473Z,56.15
2023-04-20T05:49:57.937Z,56.22
2023-04-20T05:52:24.407Z,55.98
2023-04-20T05:54:50.947Z,55.95
2023-04-20T05:57:17.374Z,57.48
2023-04-20T05:59:43.753Z,57.64
2023-04-20T06:02:10.209Z,56.72
2023-04-20T06:04:36.997Z,56.95
2023-04-20T06:07:03.602Z,55.44
2023-04-20T06:09:30.190Z,56.75
2023-04-20T06:11:57.287Z,57.00
2023-04-20T06:14:23.658Z,57.64
2023-04-20T06:16:50.005Z,58.63
2023-04-20T06:19:16.539Z,58.22
2023-04-20T06:21:43.109Z,58.40
2023-04-20T06:24:09.642Z,58.40
2023-04-20T06:26:36.020Z,60.00
2023-04-20T06:29:02.445Z,59.33
2023-04-20T06:31:28.899Z,59.45
2023-04-20T06:33:55.352Z,58.53
2023-04-20T06:36:21.701Z,60.65
2023-04-20T06:38:48.288Z,61.41
2023-04-20T06:41:15.420Z,60.85
2023-04-20T06:43:42.272Z,61.42
2023-04-20T06:46:08.695Z,59.07
2023-04-20T06:48:35.162Z,60.99
2023-04-20T06:51:01.930Z,61.15
2023-04-20T06:53:28.368Z,60.07
2023-04-20T06:55:55.663Z,61.25
2023-04-20T06:58:22.120Z,62.37
2023-04-20T07:00:48.468Z,61.85
2023-04-20T07:03:15.351Z,61.98
2023-04-20T07:05:41.925Z,60.88
2023-04-20T07:08:09.522Z,60.82
2023-04-20T07:10:36.039Z,61.23
2023-04-20T07:13:02.390Z,65.00
2023-04-20T07:15:28.755Z,63.87
2023-04-20T07:17:55.427Z,63.17
2023-04-20T07:20:21.911Z,63.13
2023-04-20T07:22:48.407Z,64.33
2023-04-20T07:25:14.778Z,64.70
2023-04-20T07:27:41.296Z,64.71
2023-04-20T07:30:08.767Z,63.84
2023-04-20T07:32:35.389Z,62.94
2023-04-20T07:35:01.822Z,64.22
2023-04-20T07:37:28.434Z,65.23
2023-04-20T07:39:54.895Z,65.26
2023-04-20T07:42:21.872Z,65.33
2023-04-20T07:44:48.284Z,64.78
2023-04-20T07:47:14.698Z,64.77
2023-04-20T07:49:41.073Z,64.62
2023-04-20T07:52:16.324Z,64.78
2023-04-20T07:54:43.787Z,62.77
2023-04-20T07:59:54.095Z,64.32
2023-04-20T08:02:21.006Z,63.44
2023-04-20T08:04:48.886Z,64.05
2023-04-20T08:07:15.700Z,62.75
2023-04-20T08:09:42.128Z,62.76
2023-04-20T08:12:08.676Z,62.92
2023-04-20T08:14:35.144Z,63.57
2023-04-20T08:17:01.644Z,63.40
2023-04-20T08:19:28.026Z,61.32
2023-04-20T08:21:54.434Z,61.29
2023-04-20T08:24:20.916Z,61.06
2023-04-20T08:26:47.574Z,60.47
2023-04-20T08:29:13.975Z,60.72
2023-04-20T08:31:40.416Z,60.90
2023-04-20T08:34:06.841Z,61.05
2023-04-20T08:36:33.241Z,60.33
2023-04-20T08:38:59.656Z,60.58
2023-04-20T08:41:26.262Z,61.55
2023-04-20T08:43:52.682Z,59.88
2023-04-20T08:46:19.172Z,61.50
2023-04-20T08:48:45.675Z,61.05
2023-04-20T08:51:12.149Z,61.65
2023-04-20T08:53:38.549Z,61.65
2023-04-20T08:56:05.362Z,60.73
2023-04-20T08:58:32.238Z,61.62
2023-04-20T09:01:00.710Z,60.69
2023-04-20T09:03:27.646Z,60.88
2023-04-20T09:05:54.125Z,61.16
2023-04-20T09:08:21.630Z,59.93
2023-04-20T09:10:48.021Z,61.14
2023-04-20T09:13:14.389Z,60.81
2023-04-20T09:15:40.744Z,61.86
2023-04-20T09:18:07.244Z,61.11
2023-04-20T09:20:33.674Z,60.53
2023-04-20T09:23:00.140Z,61.08
2023-04-20T09:25:29.583Z,61.00
2023-04-20T09:27:56.242Z,60.14
2023-04-20T09:30:22.800Z,61.48
2023-04-20T09:32:49.346Z,59.83
2023-04-20T09:35:15.754Z,59.35
2023-04-20T09:37:42.132Z,59.75
2023-04-20T09:40:08.611Z,57.95
2023-04-20T09:42:34.999Z,59.84
2023-04-20T09:45:01.385Z,59.24
2023-04-20T09:47:29.803Z,58.07
2023-04-20T09:49:57.279Z,59.61
2023-04-20T09:52:24.008Z,59.17
2023-04-20T09:54:50.443Z,58.84
2023-04-20T09:57:16.939Z,58.65
2023-04-20T09:59:43.296Z,57.32
2023-04-20T10:02:10.181Z,58.93
2023-04-20T10:04:36.971Z,58.26
2023-04-20T10:07:06.202Z,58.47
2023-04-20T10:09:34.320Z,59.04
2023-04-20T10:12:00.685Z,58.14
2023-04-20T10:14:27.079Z,60.80
2023-04-20T10:16:53.457Z,61.42
2023-04-20T10:19:19.866Z,60.71
2023-04-20T10:21:46.317Z,60.79
2023-04-20T10:24:12.715Z,59.66
2023-04-20T10:26:39.162Z,58.95
2023-04-20T10:29:06.998Z,57.96
2023-04-20T10:31:33.423Z,59.23
2023-04-20T10:33:59.789Z,57.22
2023-04-20T10:36:26.412Z,55.96
2023-04-20T10:38:53.258Z,57.04
2023-04-20T10:41:20.955Z,54.87
2023-04-20T10:43:47.301Z,55.38
2023-04-20T10:46:13.718Z,55.06
2023-04-20T10:48:40.113Z,57.39
2023-04-20T10:51:06.519Z,56.31
2023-04-20T10:53:32.861Z,58.30
2023-04-20T10:55:59.575Z,59.21
2023-04-20T10:58:25.983Z,58.57
2023-04-20T11:00:52.426Z,58.00
2023-04-20T11:03:18.912Z,57.66
2023-04-20T11:05:45.437Z,58.22
2023-04-20T11:08:11.797Z,57.03
2023-04-20T11:10:38.182Z,56.10
2023-04-20T11:13:04.573Z,53.79
2023-04-20T11:15:31.031Z,52.73
2023-04-20T11:17:57.531Z,53.31
2023-04-20T11:20:23.860Z,53.33
2023-04-20T11:22:50.253Z,53.90
2023-04-20T11:25:16.713Z,51.93
2023-04-20T11:27:43.203Z,52.63
2023-04-20T11:30:09.928Z,53.24
2023-04-20T11:32:36.578Z,52.79
2023-04-20T11:35:07.068Z,53.80
2023-04-20T11:37:33.830Z,52.57
2023-04-20T11:40:00.485Z,51.98
2023-04-20T11:42:27.391Z,54.09
2023-04-20T11:44:53.745Z,52.58
2023-04-20T11:47:20.211Z,52.00
2023-04-20T11:49:46.629Z,54.25
2023-04-20T11:52:13.008Z,53.63
2023-04-20T11:54:39.408Z,52.35
2023-04-20T11:57:05.741Z,50.23
2023-04-20T11:59:32.773Z,49.45
2023-04-20T12:02:02.680Z,48.47
2023-04-20T12:04:29.333Z,48.79
2023-04-20T12:06:56.060Z,47.93
2023-04-20T12:09:22.532Z,48.66
2023-04-20T12:11:48.938Z,50.13
2023-04-20T12:14:15.374Z,49.78
2023-04-20T12:16:41.728Z,50.43
2023-04-20T12:19:09.029Z,50.50
2023-04-20T12:21:35.575Z,49.88
2023-04-20T12:24:02.041Z,46.60
2023-04-20T12:26:37.421Z,48.44
2023-04-20T12:29:04.670Z,48.32
2023-04-20T12:31:31.119Z,45.98
2023-04-20T12:33:57.686Z,47.56
2023-04-20T12:36:24.150Z,47.63
2023-04-20T12:38:50.538Z,46.62
2023-04-20T12:41:17.007Z,46.54
2023-04-20T12:43:43.404Z,46.18
2023-04-20T12:46:09.797Z,46.43
2023-04-20T12:48:36.433Z,46.37
2023-04-20T12:51:02.870Z,44.54
2023-04-20T12:53:29.497Z,43.16
2023-04-20T12:56:01.182Z,43.27
2023-04-20T12:58:27.978Z,44.09
2023-04-20T13:00:54.467Z,43.40
2023-04-20T13:03:21.087Z,43.04
2023-04-20T13:05:47.675Z,43.88
2023-04-20T13:08:14.071Z,43.91
2023-04-20T13:10:41.961Z,44.86
2023-04-20T13:13:08.542Z,45.11
2023-04-20T13:18:04.438Z,45.59
2023-04-20T13:20:30.896Z,46.13
2023-04-20T13:23:01.038Z,45.99
2023-04-20T13:25:27.942Z,45.26
2023-04-20T13:27:54.369Z,45.70
2023-04-20T13:30:22.321Z,45.32
2023-04-20T13:32:50.654Z,44.70
2023-04-20T13:35:17.046Z,44.65
2023-04-20T13:37:43.402Z,45.14
2023-04-20T13:40:10.127Z,44.85
2023-04-20T13:42:36.513Z,48.47
2023-04-20T13:45:03.294Z,45.26
2023-04-20T13:47:29.652Z,45.62
2023-04-20T13:49:56.792Z,46.35
2023-04-20T13:52:23.311Z,44.92
2023-04-20T13:54:49.686Z,44.41
2023-04-20T13:57:16.371Z,43.97
2023-04-20T13:59:42.736Z,42.77
2023-04-20T14:02:09.177Z,42.34
2023-04-20T14:04:35.591Z,41.91
2023-04-20T14:07:01.959Z,41.97
2023-04-20T14:09:28.593Z,41.59
2023-04-20T14:11:58.134Z,42.18
2023-04-20T14:14:24.592Z,42.78
2023-04-20T14:16:51.114Z,42.30
2023-04-20T14:19:17.431Z,42.92
2023-04-20T14:21:47.359Z,42.80
2023-04-20T14:24:13.753Z,44.70
2023-04-20T14:26:40.113Z,45.14
2023-04-20T14:29:06.515Z,44.24
2023-04-20T14:31:32.983Z,43.92
2023-04-20T14:33:59.512Z,44.38
2023-04-20T14:36:25.908Z,44.21
2023-04-20T14:38:52.290Z,42.90
2023-04-20T14:41:18.689Z,42.81
2023-04-20T14:43:45.082Z,44.18
2023-04-20T14:46:11.506Z,42.11
2023-04-20T14:48:40.979Z,43.70
2023-04-20T14:51:07.389Z,44.56
2023-04-20T14:53:33.782Z,42.54
2023-04-20T14:56:00.181Z,42.95
2023-04-20T14:58:26.549Z,43.12
2023-04-20T15:00:54.016Z,42.38
2023-04-20T15:03:20.708Z,43.02
2023-04-20T15:05:47.501Z,44.19
2023-04-20T15:08:14.061Z,43.58
2023-04-20T15:10:40.463Z,42.83
2023-04-20T15:13:06.874Z,42.88
2023-04-20T15:15:41.574Z,42.16
2023-04-20T15:18:14.874Z,42.24
2023-04-20T15:20:41.315Z,40.96
2023-04-20T15:23:07.731Z,40.86
2023-04-20T15:25:34.068Z,41.40
2023-04-20T15:28:00.411Z,41.88
2023-04-20T15:30:26.886Z,41.61
2023-04-20T15:32:53.324Z,40.77
2023-04-20T15:35:19.780Z,40.81
2023-04-20T15:37:46.456Z,40.71
2023-04-20T15:40:12.769Z,41.11
2023-04-20T15:42:39.189Z,42.55
2023-04-20T15:45:05.719Z,41.08
2023-04-20T15:47:32.196Z,40.44
2023-04-20T15:50:01.497Z,40.38
2023-04-20T15:52:28.135Z,40.18
2023-04-20T15:54:54.518Z,40.87
2023-04-20T15:57:21.022Z,40.54
2023-04-20T15:59:47.380Z,39.97
2023-04-20T16:02:13.803Z,39.52
2023-04-20T16:04:40.464Z,39.15
2023-04-20T16:07:06.935Z,39.68
2023-04-20T16:09:33.306Z,37.66
2023-04-20T16:11:59.746Z,37.92
2023-04-20T16:14:26.142Z,36.88
2023-04-20T16:16:52.533Z,36.80
2023-04-20T16:19:19.184Z,36.23
2023-04-20T16:21:45.609Z,36.24
2023-04-20T16:24:12.029Z,36.30
2023-04-20T16:26:39.521Z,35.69
2023-04-20T16:29:07.152Z,36.74
2023-04-20T16:31:35.336Z,36.48
2023-04-20T16:34:01.794Z,35.48
2023-04-20T16:36:28.161Z,36.48
2023-04-20T16:38:54.628Z,37.44
2023-04-20T16:41:21.705Z,36.94
2023-04-20T16:43:48.141Z,36.53
2023-04-20T16:46:16.306Z,37.17
2023-04-20T16:48:42.746Z,37.07
2023-04-20T16:51:09.151Z,37.21
2023-04-20T16:53:35.546Z,36.74
2023-04-20T16:56:01.934Z,37.84
2023-04-20T16:58:28.346Z,37.34
2023-04-20T17:00:54.841Z,36.89
2023-04-20T17:03:21.496Z,37.28
2023-04-20T17:05:47.931Z,36.91
2023-04-20T17:08:14.423Z,38.33
2023-04-20T17:10:40.820Z,40.32
2023-04-20T17:13:07.245Z,41.10
2023-04-20T17:15:33.679Z,41.77
2023-04-20T17:18:00.380Z,41.59
2023-04-20T17:20:26.836Z,40.81
2023-04-20T17:22:53.247Z,42.68
2023-04-20T17:25:19.755Z,42.81
2023-04-20T17:27:46.230Z,43.54
2023-04-20T17:30:12.672Z,43.61
2023-04-20T17:32:39.104Z,43.56
2023-04-20T17:35:05.538Z,44.54
2023-04-20T17:37:31.912Z,44.24
2023-04-20T17:39:58.350Z,43.66
2023-04-20T17:42:24.797Z,44.17
2023-04-20T17:44:51.125Z,44.77
2023-04-20T17:47:17.478Z,45.40
2023-04-20T17:49:43.967Z,45.73
2023-04-20T17:52:12.556Z,46.20
2023-04-20T17:54:39.184Z,47.46
2023-04-20T17:57:06.942Z,47.26
2023-04-20T17:59:33.319Z,48.44
2023-04-20T18:01:59.980Z,49.73
2023-04-20T18:04:27.273Z,50.10
2023-04-20T18:06:53.768Z,50.75
2023-04-20T18:09:20.411Z,49.38
2023-04-20T18:11:46.980Z,49.70
2023-04-20T18:14:13.531Z,50.84
2023-04-20T18:16:40.251Z,51.63
2023-04-20T18:19:06.677Z,50.82
2023-04-20T18:21:34.700Z,51.52
2023-04-20T18:24:01.832Z,51.28
2023-04-20T18:26:28.564Z,50.07
2023-04-20T18:28:54.955Z,50.41
2023-04-20T18:31:21.381Z,51.03
2023-04-20T18:33:47.797Z,52.20
2023-04-20T18:36:14.179Z,52.62
2023-04-20T18:38:40.673Z,52.40
2023-04-20T18:41:07.039Z,53.32
2023-04-20T18:43:33.673Z,53.06
2023-04-20T18:46:00.241Z,54.11
2023-04-20T18:48:26.753Z,55.53
2023-04-20T18:50:53.128Z,55.63
2023-04-20T18:53:19.509Z,55.37
2023-04-20T18:55:46.513Z,55.18
2023-04-20T18:58:12.897Z,55.26
2023-04-20T19:00:39.296Z,56.33
2023-04-20T19:03:06.078Z,57.15
2023-04-20T19:05:32.988Z,56.11
2023-04-20T19:07:59.445Z,57.34
2023-04-20T19:10:26.517Z,57.55
2023-04-20T19:12:52.970Z,57.48
2023-04-20T19:15:25.408Z,57.66
2023-04-20T19:17:51.946Z,56.84
2023-04-20T19:20:18.364Z,58.21
2023-04-20T19:22:44.710Z,57.52
2023-04-20T19:25:11.056Z,56.25
2023-04-20T19:27:37.477Z,58.57
2023-04-20T19:30:03.897Z,58.77
2023-04-20T19:32:30.460Z,58.77
2023-04-20T19:34:59.076Z,59.95
2023-04-20T19:37:25.474Z,60.11
2023-04-20T19:39:51.838Z,59.50
2023-04-20T19:42:18.691Z,59.14
2023-04-20T19:44:45.084Z,59.24
2023-04-20T19:47:11.404Z,58.91
2023-04-20T19:49:37.797Z,59.37
2023-04-20T19:52:04.307Z,59.31
2023-04-20T19:54:30.904Z,60.06
2023-04-20T19:56:57.790Z,59.91
2023-04-20T19:59:24.232Z,60.63
2023-04-20T20:01:50.978Z,59.59
2023-04-20T20:04:17.542Z,60.17
2023-04-20T20:06:48.408Z,60.33
2023-04-20T20:09:14.766Z,60.61
2023-04-20T20:11:47.957Z,61.42
2023-04-20T20:14:14.321Z,60.75
2023-04-20T20:16:40.677Z,59.44
2023-04-20T20:19:07.576Z,60.72
2023-04-20T20:21:33.919Z,60.71
2023-04-20T20:24:00.484Z,61.65
2023-04-20T20:26:27.046Z,61.20
2023-04-20T20:28:53.628Z,61.92
2023-04-20T20:31:20.356Z,61.81
2023-04-20T20:33:46.795Z,62.49
2023-04-20T20:36:13.207Z,63.00
2023-04-20T20:38:40.669Z,62.38
2023-04-20T20:41:07.190Z,62.26
2023-04-20T20:43:34.489Z,63.91
2023-04-20T20:46:01.222Z,64.20
2023-04-20T20:48:27.900Z,64.82
2023-04-20T20:50:54.251Z,64.47
2023-04-20T20:53:20.889Z,64.68
2023-04-20T20:55:47.358Z,63.89
2023-04-20T20:58:13.731Z,64.09
2023-04-20T21:00:50.494Z,66.67
2023-04-20T21:03:17.046Z,65.69
2023-04-20T21:05:44.359Z,67.68
2023-04-20T21:08:10.732Z,66.85
2023-04-20T21:10:37.264Z,67.86
2023-04-20T21:13:04.198Z,67.37
2023-04-20T21:15:30.873Z,67.62
2023-04-20T21:17:57.518Z,67.62
2023-04-20T21:20:23.913Z,68.54
2023-04-20T21:22:50.655Z,69.76
2023-04-20T21:25:19.124Z,70.16
2023-04-20T21:27:45.619Z,69.25
2023-04-20T21:30:12.164Z,69.10
2023-04-20T21:32:38.600Z,67.96
2023-04-20T21:35:05.402Z,69.21
2023-04-20T21:37:31.881Z,69.64
2023-04-20T21:39:58.567Z,70.47
2023-04-20T21:42:25.388Z,70.68
2023-04-20T21:44:51.927Z,70.03
2023-04-20T21:47:18.270Z,70.55
2023-04-20T21:49:44.717Z,71.50
2023-04-20T21:52:11.045Z,70.75
2023-04-20T21:54:37.982Z,70.05
2023-04-20T21:57:04.332Z,71.24
2023-04-20T21:59:30.801Z,69.45
2023-04-20T22:01:57.336Z,72.19
2023-04-20T22:04:25.801Z,73.53
2023-04-20T22:06:53.973Z,73.46
2023-04-20T22:09:20.910Z,73.58
2023-04-20T22:11:49.964Z,71.94
2023-04-20T22:14:16.797Z,71.33
2023-04-20T22:16:43.243Z,73.80
2023-04-20T22:19:09.600Z,74.73
2023-04-20T22:21:35.971Z,73.66
2023-04-20T22:24:02.502Z,74.64
2023-04-20T22:26:28.892Z,75.62
2023-04-20T22:28:55.358Z,75.79
2023-04-20T22:31:21.776Z,77.47
2023-04-20T22:33:48.163Z,77.38
2023-04-20T22:36:14.537Z,77.86
2023-04-20T22:38:41.018Z,77.71
2023-04-20T22:41:07.475Z,77.53
2023-04-20T22:43:33.834Z,78.51
2023-04-20T22:46:00.224Z,77.00
2023-04-20T22:48:26.557Z,79.10
2023-04-20T22:50:53.371Z,79.45
2023-04-20T22:53:19.765Z,79.63
2023-04-20T22:55:46.238Z,78.94
2023-04-20T22:58:12.705Z,80.14
2023-04-20T23:00:39.238Z,80.86
2023-04-20T23:03:05.723Z,80.32
2023-04-20T23:05:32.167Z,80.38
2023-04-20T23:08:00.479Z,79.61
2023-04-20T23:10:28.551Z,79.93
2023-04-20T23:12:55.406Z,79.35
2023-04-20T23:15:21.931Z,78.53
2023-04-20T23:17:48.357Z,80.36
2023-04-20T23:20:15.102Z,78.71
2023-04-20T23:22:41.529Z,79.20
2023-04-20T23:25:08.017Z,78.92
2023-04-20T23:27:34.362Z,78.87
2023-04-20T23:30:00.893Z,78.49
2023-04-20T23:32:27.364Z,79.12
2023-04-20T23:34:53.705Z,79.20
2023-04-20T23:37:20.260Z,79.31
2023-04-20T23:39:46.678Z,79.56
2023-04-20T23:42:13.037Z,79.58
2023-04-20T23:44:39.382Z,79.94
2023-04-20T23:47:05.926Z,80.83
2023-04-20T23:49:32.643Z,81.26
2023-04-20T23:51:59.356Z,80.53
2023-04-20T23:54:26.156Z,82.04
2023-04-20T23:56:52.526Z,82.65
2023-04-20T23:59:19.192Z,82.71
